Bookmark and Share
Track history (hours):
 

Santa Barbara

Last reported at 2014-Apr-03 15:30 UTC. Time now 2014-Apr-23 06:53 UTC.
Position N 35°57' W 006°03'.
Warning: this ship's position is 19 days out of date.

Length 225 m; draft 7.6 m.

Type: Ship. MMSI: 372230000.

NotesDate/timePositionNaut miles runAvg speedWind from/ knotsBaromVisibWave heightAir tempDewpointWater temp
2014-Apr-03 15:30N 35°57' W 006°03'1212.1
2014-Apr-03 14:32N 35°58' W 005°49'1212.1
2014-Apr-03 13:33N 35°58' W 005°34'1010.4
2014-Apr-03 12:33N 36°01' W 005°22'1010.4
2014-Apr-03 11:33N 36°04' W 005°09'25013.1
2014-Apr-02 16:29N 36°43' W 000°02'4013.8
2014-Apr-02 13:33N 36°49' E 000°48'20013.2
2014-Apr-01 22:23N 37°19' E 004°56'1415.1
2014-Apr-01 21:28N 37°22' E 005°13'1313.9
2014-Apr-01 20:33N 37°24' E 005°28'1515.0
2014-Apr-01 19:33N 37°27' E 005°47'1515.2
2014-Apr-01 18:33N 37°29' E 006°06'1615.4
2014-Apr-01 17:32N 37°31' E 006°26'1514.8
2014-Apr-01 16:33N 37°33' E 006°44'3114.6
2014-Apr-01 14:24N 37°37' E 007°23'1814.7
2014-Apr-01 13:11N 37°37' E 007°45'1515.2
2014-Apr-01 12:12N 37°37' E 008°04'13413.9
2014-Apr-01 02:33N 37°36' E 010°53'1514.1
2014-Apr-01 01:32N 37°29' E 011°09'1313.7
2014-Apr-01 00:33N 37°22' E 011°23'1513.7
2014-Mar-31 23:26N 37°15' E 011°40'1513.8
2014-Mar-31 22:21N 37°07' E 011°56'1113.6
2014-Mar-31 21:33N 37°02' E 012°08'1614.0
2014-Mar-31 20:26N 36°57' E 012°27'3913.7
2014-Mar-31 17:33N 36°45' E 013°14'1413.6
2014-Mar-31 16:33N 36°42' E 013°30'1413.6
2014-Mar-31 15:33N 36°37' E 013°46'1413.5
2014-Mar-31 14:33N 36°34' E 014°03'1413.8
2014-Mar-31 13:33N 36°30' E 014°19'1313.3
2014-Mar-31 12:33N 36°27' E 014°35'1312.4
2014-Mar-31 11:31N 36°28' E 014°51'1413.1
2014-Mar-31 10:28N 36°33' E 015°07'  

Dump ship's entire track history

sailing weather and tide predictions

Santa Barbara — 3FWW8 — position and weather